Saturday, October 25, 2014, 6:04 PM EDT

KUNV, State College, University Park Airport

Location: State College, PA, United States Lat: 40.85
Local Time: 6:04 PM EDT (22:04 GMT) Lon: -77.85
Time Zone: US/Eastern Elev: 1240 ft

Show me the last for .
Show Decoded

2014-10-25 17:53 METAR KUNV 252153Z 26014G18KT 10SM BKN046 17/09 A2968 =
2014-10-25 16:53 METAR KUNV 252053Z 25014KT 10SM BKN060 17/09 A2971 =
2014-10-25 15:53 METAR KUNV 251953Z 26014G19KT 10SM BKN060 18/09 A2973 =
2014-10-25 14:53 METAR KUNV 251853Z 26017G24KT 10SM SKC 19/09 A2974 =
2014-10-25 13:53 METAR KUNV 251753Z 27017G26KT 10SM BKN045 18/08 A2979 =
2014-10-25 12:53 METAR KUNV 251653Z 25014G20KT 10SM BKN045 18/09 A2982 =
2014-10-25 11:53 METAR KUNV 251553Z 26015G20KT 10SM SCT045 16/07 A2985 =
2014-10-25 10:53 METAR KUNV 251453Z 22010KT 10SM SKC 14/06 A2988 =
2014-10-25 09:53 METAR KUNV 251353Z 23006KT 10SM BKN045 11/05 A2991 =
2014-10-25 07:53 METAR KUNV 251153Z 24004KT 10SM OVC047 07/04 A2993 =
2014-10-25 06:53 METAR KUNV 251053Z 22004KT 10SM SCT047 SCT075 07/03 A2993 =
2014-10-25 05:53 METAR KUNV 250953Z 23005KT 10SM SKC 07/03 A2993 =
2014-10-25 05:35 METAR KUNV 250935Z AUTO 28005KT 10SM SCT048 09/04 A2993 RMK AO2 T00850035 =
2014-10-25 05:15 METAR KUNV 250915Z AUTO 27005KT 10SM BKN048 08/03 A2993 RMK AO2 T00840034 =
2014-10-25 04:55 METAR KUNV 250855Z AUTO 23004KT 10SM SCT048 SCT080 08/03 A2993 RMK AO2 T00780030
                 =
2014-10-25 04:35 METAR KUNV 250835Z AUTO 24004KT 10SM SCT048 SCT085 09/03 A2994 RMK AO2 T00890031
                 =
2014-10-25 03:55 METAR KUNV 250755Z AUTO 25009KT 10SM SCT048 SCT070 09/03 A2995 RMK AO2 T00890034
                 =
2014-10-25 03:35 METAR KUNV 250735Z AUTO 23006KT 10SM OVC048 09/04 A2995 RMK AO2 T00930037 =
2014-10-25 03:15 METAR KUNV 250715Z AUTO 23006KT 10SM BKN048 BKN075 BKN085 09/03 A2995 RMK AO2
                 T00870034 =
2014-10-25 02:55 METAR KUNV 250655Z AUTO 24007KT 10SM SCT050 09/04 A2996 RMK AO2 T00940035 =
2014-10-25 02:35 METAR KUNV 250635Z AUTO 24008KT 10SM SCT050 08/04 A2996 RMK AO2 T00840035 =
2014-10-25 02:15 METAR KUNV 250615Z AUTO 23008KT 10SM CLR 09/03 A2996 RMK AO2 T00850033 =
2014-10-25 01:55 METAR KUNV 250555Z AUTO 21004KT 10SM CLR 09/03 A2995 RMK AO2 T00860030 10117
                 20080 =
2014-10-25 01:35 METAR KUNV 250535Z AUTO 22004KT 10SM CLR 08/03 A2996 RMK AO2 T00830030 =
2014-10-25 01:15 METAR KUNV 250515Z AUTO 22005KT 10SM CLR 09/03 A2996 RMK AO2 T00860030 =
2014-10-25 00:55 METAR KUNV 250455Z AUTO 23006KT 10SM CLR 08/03 A2996 RMK AO2 T00840030 =
2014-10-25 00:35 METAR KUNV 250435Z AUTO 23006KT 10SM CLR 09/03 A2997 RMK AO2 T00880030 =
2014-10-25 00:15 METAR KUNV 250415Z AUTO 25005KT 10SM CLR 10/03 A2997 RMK AO2 T01010034 =
2014-10-24 23:55 METAR KUNV 250355Z AUTO 23003KT 10SM CLR 10/03 A2997 RMK AO2 T00990033 401650062
                 =
2014-10-24 23:15 METAR KUNV 250315Z AUTO 26004KT 10SM CLR 09/03 A2997 RMK AO2 T00890033 =
2014-10-24 22:35 METAR KUNV 250235Z AUTO 22005KT 10SM CLR 09/03 A2997 RMK AO2 T00910033 =
2014-10-24 22:15 METAR KUNV 250215Z AUTO 24005KT 10SM CLR 10/03 A2997 RMK AO2 T01020034 =
2014-10-24 21:55 METAR KUNV 250155Z AUTO 23005KT 10SM CLR 09/04 A2997 RMK AO2 T00870035 =
2014-10-24 20:53 METAR KUNV 250053Z 27006KT 10SM SKC 11/03 A2996 =
2014-10-24 19:53 METAR KUNV 242353Z 26006KT 10SM SKC 12/03 A2995 =
2014-10-24 18:53 METAR KUNV 242253Z 31004KT 10SM SKC 13/02 A2994 =

Support USWX by starting your Amazon purchase here.